Time;durP1;ratioP1;P1;durP2;ratioP2;P2;SDS_P1;SDS_P2;PMS_P1;PMS_P2;Temp;Humidity;BMP_temperature;BMP_pressure;BME280_temperature;BME280_humidity;BME280_pressure;Samples;Min_cycle;Max_cycle;Signal;HPM_P1;HPM_P2
2022/03/11 00:02:17;;;;;;;9.80;8.80;;;;;;;1.64;73.32;101384.84;5050828;28;20681;-73
2022/03/11 00:04:45;;;;;;;10.40;9.27;;;;;;;1.57;73.50;101383.28;5050564;28;20280;-74
2022/03/11 00:07:10;;;;;;;8.30;7.13;;;;;;;1.49;74.02;101385.25;5050291;28;20675;-74
2022/03/11 00:09:35;;;;;;;10.60;8.23;;;;;;;1.33;73.85;101375.13;5050691;28;20447;-75
2022/03/11 00:12:01;;;;;;;10.33;8.27;;;;;;;1.04;75.01;101378.59;5050402;28;20176;-73
2022/03/11 00:14:26;;;;;;;11.60;9.37;;;;;;;0.91;75.49;101371.50;5050277;28;20191;-73
2022/03/11 00:16:51;;;;;;;12.30;9.70;;;;;;;0.91;76.09;101382.25;5050068;28;20174;-73
2022/03/11 00:19:17;;;;;;;10.00;8.73;;;;;;;0.83;76.24;101386.06;5050458;28;20171;-73
2022/03/11 00:21:42;;;;;;;11.00;8.47;;;;;;;0.80;77.01;101393.75;5050432;28;20175;-75
2022/03/11 00:24:08;;;;;;;12.07;8.53;;;;;;;0.76;76.97;101379.94;5050198;28;20606;-73
2022/03/11 00:26:34;;;;;;;11.37;8.80;;;;;;;0.69;77.76;101384.53;5050233;28;20246;-73
2022/03/11 00:29:00;;;;;;;9.43;8.03;;;;;;;0.57;77.82;101379.06;5049944;28;20179;-74
2022/03/11 00:31:27;;;;;;;18.77;8.93;;;;;;;0.52;78.17;101384.31;5050271;28;20167;-73
2022/03/11 00:33:52;;;;;;;15.33;9.40;;;;;;;0.42;78.51;101386.66;5049948;28;20167;-74
2022/03/11 00:36:18;;;;;;;13.83;9.20;;;;;;;0.40;78.55;101396.81;5050213;28;20167;-75
2022/03/11 00:38:43;;;;;;;11.23;8.90;;;;;;;0.33;79.42;101389.88;5049850;28;20195;-75
2022/03/11 00:41:08;;;;;;;19.10;9.37;;;;;;;0.32;79.62;101389.06;5050148;28;20217;-78
2022/03/11 00:43:34;;;;;;;10.77;8.53;;;;;;;0.32;79.57;101388.25;5050111;28;20199;-74
2022/03/11 00:45:59;;;;;;;14.43;9.17;;;;;;;0.37;79.56;101386.53;5050171;28;20183;-76
2022/03/11 00:48:25;;;;;;;9.47;7.77;;;;;;;0.29;79.50;101378.75;5049920;28;20175;-74
2022/03/11 00:50:51;;;;;;;10.93;8.40;;;;;;;0.20;80.17;101385.44;5050069;28;20179;-74
2022/03/11 00:53:17;;;;;;;10.97;8.63;;;;;;;0.24;79.50;101386.63;5050251;28;20244;-74
2022/03/11 00:55:42;;;;;;;10.47;9.00;;;;;;;0.09;79.88;101376.22;5032118;28;20179;-73
2022/03/11 00:58:08;;;;;;;11.17;9.27;;;;;;;0.11;80.71;101386.75;5049814;28;20182;-74
2022/03/11 01:00:33;;;;;;;12.87;9.50;;;;;;;0.18;80.36;101388.34;5050074;28;20167;-74
2022/03/11 01:02:59;;;;;;;9.17;7.93;;;;;;;0.21;80.59;101393.28;5049941;28;20175;-74
2022/03/11 01:05:25;;;;;;;9.83;8.23;;;;;;;0.04;80.67;101386.81;5049912;28;20221;-74
2022/03/11 01:07:51;;;;;;;13.90;8.67;;;;;;;0.02;80.60;101377.31;5049810;28;20206;-75
2022/03/11 01:10:17;;;;;;;9.23;7.87;;;;;;;0.08;80.86;101381.81;5050472;28;20205;-76
2022/03/11 01:12:43;;;;;;;12.07;8.30;;;;;;;0.08;81.34;101381.81;5049892;28;20206;-74
2022/03/11 01:15:08;;;;;;;10.77;8.13;;;;;;;0.14;81.06;101388.97;5049469;28;20186;-75
2022/03/11 01:17:34;;;;;;;9.43;8.23;;;;;;;0.23;80.52;101379.63;5049623;28;20702;-74
2022/03/11 01:19:59;;;;;;;8.83;8.00;;;;;;;0.08;80.85;101371.06;5050377;28;20224;-73
2022/03/11 01:22:25;;;;;;;10.47;8.23;;;;;;;0.09;81.16;101378.09;5050630;28;20198;-74
2022/03/11 01:24:50;;;;;;;9.83;7.80;;;;;;;-0.07;81.80;101368.69;5049744;28;20211;-73
2022/03/11 01:27:16;;;;;;;10.13;9.03;;;;;;;-0.01;81.56;101374.00;5049602;28;20183;-73
2022/03/11 01:29:41;;;;;;;9.90;8.67;;;;;;;-0.18;82.40;101369.41;5049609;28;20187;-74
2022/03/11 01:32:07;;;;;;;11.13;8.43;;;;;;;-0.36;82.53;101372.81;5049716;28;20266;-73
2022/03/11 01:34:32;;;;;;;11.00;7.77;;;;;;;-0.30;83.55;101374.63;5049574;28;20179;-72
2022/03/11 01:36:58;;;;;;;13.03;7.53;;;;;;;-0.26;83.22;101365.13;5049656;28;20236;-73
2022/03/11 01:39:23;;;;;;;11.33;8.90;;;;;;;-0.31;83.44;101363.06;5049674;28;20179;-74
2022/03/11 01:41:48;;;;;;;14.23;9.40;;;;;;;-0.41;83.53;101357.38;5049576;28;20179;-73
2022/03/11 01:44:14;;;;;;;9.97;8.97;;;;;;;-0.44;84.01;101362.34;5049741;28;20290;-73
2022/03/11 01:46:39;;;;;;;11.63;9.67;;;;;;;-0.57;84.57;101354.38;5052853;28;20203;-74
2022/03/11 01:49:07;;;;;;;18.00;10.70;;;;;;;-0.67;85.42;101346.78;5052949;28;20546;-73
2022/03/11 01:51:36;;;;;;;12.33;7.97;;;;;;;-0.76;86.05;101345.38;5053171;28;20639;-73
2022/03/11 01:54:02;;;;;;;9.40;8.03;;;;;;;-0.83;86.58;101336.56;5053078;28;20742;-73
2022/03/11 01:56:28;;;;;;;10.80;7.23;;;;;;;-0.82;87.00;101330.97;5053042;28;20430;-73
2022/03/11 01:58:55;;;;;;;13.63;9.07;;;;;;;-0.80;86.90;101342.31;5052573;28;20547;-73
2022/03/11 02:01:22;;;;;;;11.83;8.30;;;;;;;-0.70;86.55;101347.22;5035038;28;20190;-74
2022/03/11 02:03:49;;;;;;;12.27;8.77;;;;;;;-0.65;86.20;101340.16;5052709;28;20578;-73
2022/03/11 02:06:15;;;;;;;9.27;8.30;;;;;;;-0.59;86.05;101341.16;5052714;28;20421;-73
2022/03/11 02:08:42;;;;;;;11.87;7.80;;;;;;;-0.61;85.46;101345.91;5052537;28;20176;-73
2022/03/11 02:11:08;;;;;;;12.00;8.10;;;;;;;-0.59;85.22;101349.22;5052704;28;20233;-75
2022/03/11 02:13:48;;;;;;;10.20;7.63;;;;;;;-0.60;85.28;101340.34;5052759;28;20205;-75
2022/03/11 02:16:15;;;;;;;10.37;7.40;;;;;;;-0.65;85.33;101337.50;5052697;28;20181;-74
2022/03/11 02:18:41;;;;;;;9.87;7.57;;;;;;;-0.71;85.73;101335.69;5052363;28;20172;-74
2022/03/11 02:21:07;;;;;;;11.80;7.93;;;;;;;-0.60;85.51;101348.38;5052551;28;20182;-74
2022/03/11 02:23:44;;;;;;;10.43;7.53;;;;;;;-0.53;85.35;101347.53;5052835;28;20665;-74
2022/03/11 02:26:10;;;;;;;8.73;7.30;;;;;;;-0.53;85.22;101347.53;5052298;28;20223;-74
2022/03/11 02:28:35;;;;;;;9.43;7.93;;;;;;;-0.47;85.56;101347.50;5052045;28;20654;-73
2022/03/11 02:31:02;;;;;;;10.80;8.37;;;;;;;-0.39;85.27;101351.78;5052564;28;20179;-74
2022/03/11 02:33:28;;;;;;;10.17;7.77;;;;;;;-0.63;84.85;101340.78;5052654;28;20651;-73
2022/03/11 02:35:53;;;;;;;10.73;8.63;;;;;;;-0.80;86.25;101341.50;5052266;28;20178;-75
2022/03/11 02:38:19;;;;;;;14.80;8.40;;;;;;;-0.80;86.60;101347.69;5052082;28;20221;-74
2022/03/11 02:40:44;;;;;;;12.90;8.17;;;;;;;-0.69;86.36;101349.69;5052245;28;20242;-73
2022/03/11 02:43:10;;;;;;;9.23;7.57;;;;;;;-0.72;86.37;101343.94;5052046;28;20171;-74
2022/03/11 02:45:35;;;;;;;16.83;7.43;;;;;;;-0.62;86.57;101350.47;5052097;28;20270;-74
2022/03/11 02:48:00;;;;;;;12.00;7.97;;;;;;;-0.83;86.10;101334.72;5033922;28;20258;-74
2022/03/11 02:50:26;;;;;;;12.67;8.43;;;;;;;-1.04;86.87;101322.41;5052137;28;20236;-74
2022/03/11 02:52:51;;;;;;;11.40;7.00;;;;;;;-0.97;87.44;101330.44;5052053;28;20217;-74
2022/03/11 02:55:19;;;;;;;8.97;7.77;;;;;;;-0.97;87.65;101335.81;5051718;28;20670;-75
2022/03/11 02:57:44;;;;;;;8.13;7.13;;;;;;;-0.85;87.52;101347.50;5051446;28;20179;-74
2022/03/11 03:00:10;;;;;;;12.73;7.33;;;;;;;-0.92;87.08;101330.63;5052036;28;20420;-76
2022/03/11 03:02:35;;;;;;;9.53;8.07;;;;;;;-0.97;86.66;101330.44;5051694;28;20202;-74
2022/03/11 03:05:01;;;;;;;11.50;8.27;;;;;;;-1.02;86.50;101328.38;5051960;28;20268;-76
2022/03/11 03:07:27;;;;;;;9.33;7.57;;;;;;;-0.97;85.70;101325.06;5051484;28;20665;-74
2022/03/11 03:09:52;;;;;;;13.27;7.00;;;;;;;-0.99;85.67;101313.75;5051543;28;20176;-74
2022/03/11 03:12:18;;;;;;;10.20;7.40;;;;;;;-0.87;85.45;101328.09;5051474;28;20187;-73
2022/03/11 03:14:43;;;;;;;20.43;7.50;;;;;;;-0.80;84.48;101320.84;5051267;28;20203;-74
2022/03/11 03:17:08;;;;;;;10.00;7.90;;;;;;;-0.75;83.99;101318.34;5051164;28;20199;-74
2022/03/11 03:19:35;;;;;;;10.70;6.50;;;;;;;-0.70;82.95;101321.22;5051381;28;20213;-74
2022/03/11 03:22:01;;;;;;;8.83;6.53;;;;;;;-0.65;82.84;101324.06;5051294;28;20216;-74
2022/03/11 03:24:27;;;;;;;10.57;7.83;;;;;;;-0.72;82.40;101304.53;5051130;28;20474;-74
2022/03/11 03:26:54;;;;;;;10.13;7.47;;;;;;;-0.69;82.80;101314.81;5050962;28;20536;-75
2022/03/11 03:29:20;;;;;;;8.47;6.73;;;;;;;-0.65;82.13;101316.03;5051138;28;20186;-76
2022/03/11 03:31:45;;;;;;;9.77;7.33;;;;;;;-0.75;81.86;101320.22;5051229;28;20171;-74
2022/03/11 03:34:10;;;;;;;8.57;7.00;;;;;;;-0.84;82.10;101308.91;5051199;28;20171;-73
2022/03/11 03:36:36;;;;;;;8.20;7.17;;;;;;;-0.87;81.82;101305.81;5050868;28;20250;-75
2022/03/11 03:39:01;;;;;;;7.57;6.27;;;;;;;-0.81;82.10;101327.25;5051145;28;20557;-74
2022/03/11 03:41:27;;;;;;;7.97;6.67;;;;;;;-0.75;81.71;101321.03;5051176;28;20638;-74
2022/03/11 03:43:52;;;;;;;15.33;7.83;;;;;;;-0.73;81.48;101315.44;5050944;28;20191;-73
2022/03/11 03:46:17;;;;;;;7.70;6.87;;;;;;;-0.78;81.62;101317.97;5050816;28;20657;-73
2022/03/11 03:48:43;;;;;;;7.93;6.63;;;;;;;-0.86;81.97;101312.84;5051232;28;20176;-74
2022/03/11 03:51:08;;;;;;;8.60;5.90;;;;;;;-1.02;82.24;101303.41;5050806;28;20333;-74
2022/03/11 03:53:33;;;;;;;9.13;6.83;;;;;;;-1.04;82.32;101309.00;5050824;28;20175;-74
2022/03/11 03:55:58;;;;;;;7.17;6.47;;;;;;;-1.00;82.57;101302.19;5050681;28;20183;-73
2022/03/11 03:58:24;;;;;;;10.13;6.50;;;;;;;-0.92;82.34;101301.13;5050443;28;20622;-73
2022/03/11 04:00:50;;;;;;;9.60;7.00;;;;;;;-0.98;82.45;101301.97;5050670;28;20167;-74
2022/03/11 04:03:15;;;;;;;7.67;6.87;;;;;;;-1.03;82.43;101297.25;5050768;28;20207;-74
2022/03/11 04:05:40;;;;;;;9.80;7.00;;;;;;;-0.99;82.23;101294.97;5050527;28;20183;-73
2022/03/11 04:08:06;;;;;;;8.37;6.03;;;;;;;-1.02;82.20;101290.00;5049741;28;20740;-73
2022/03/11 04:10:32;;;;;;;9.03;6.83;;;;;;;-1.22;82.42;101280.22;5050530;28;20167;-74
2022/03/11 04:12:57;;;;;;;8.60;6.33;;;;;;;-1.20;82.67;101280.81;5050698;28;20175;-73
2022/03/11 04:15:23;;;;;;;10.20;6.17;;;;;;;-1.18;82.39;101291.31;5050289;28;20207;-74
2022/03/11 04:17:49;;;;;;;8.93;6.47;;;;;;;-1.24;82.03;101286.84;5050108;28;20182;-74
2022/03/11 04:20:14;;;;;;;9.67;6.20;;;;;;;-1.32;82.27;101282.50;5050659;28;20183;-74
2022/03/11 04:22:44;;;;;;;8.97;6.67;;;;;;;-1.26;82.66;101276.31;5050426;28;20172;-74
2022/03/11 04:25:11;;;;;;;9.57;6.20;;;;;;;-1.37;82.38;101266.25;5050540;28;20207;-73
2022/03/11 04:27:37;;;;;;;7.80;5.17;;;;;;;-1.25;82.49;101277.97;5050248;28;20247;-74
2022/03/11 04:30:03;;;;;;;10.33;6.60;;;;;;;-1.17;82.51;101273.38;5050402;28;20414;-73
2022/03/11 04:32:29;;;;;;;8.13;6.17;;;;;;;-1.04;82.10;101279.50;5050061;28;20420;-74
2022/03/11 04:34:55;;;;;;;11.20;6.87;;;;;;;-1.08;81.53;101275.63;5050748;28;20782;-74
2022/03/11 04:37:20;;;;;;;9.83;5.83;;;;;;;-1.06;81.72;101267.34;5049858;28;20181;-74
2022/03/11 04:39:45;;;;;;;9.90;6.43;;;;;;;-1.18;81.56;101264.53;5050167;28;20186;-74
2022/03/11 04:42:11;;;;;;;9.90;6.70;;;;;;;-1.27;81.54;101260.47;5050171;28;20183;-74
2022/03/11 04:44:36;;;;;;;7.63;6.47;;;;;;;-1.42;81.94;101258.03;5050150;28;20206;-74
2022/03/11 04:47:02;;;;;;;10.57;6.77;;;;;;;-1.54;81.73;101259.75;5049800;28;20800;-74
2022/03/11 04:49:28;;;;;;;8.87;5.80;;;;;;;-1.61;82.38;101253.56;5032133;28;20673;-74
2022/03/11 04:51:53;;;;;;;6.20;5.60;;;;;;;-1.39;82.45;101256.78;5050039;28;20179;-74
2022/03/11 04:54:18;;;;;;;9.23;6.33;;;;;;;-1.39;82.74;101244.22;5049919;28;20220;-74
2022/03/11 04:56:44;;;;;;;8.37;6.87;;;;;;;-1.14;82.90;101263.06;5049786;28;20224;-74
2022/03/11 04:59:09;;;;;;;9.93;6.93;;;;;;;-1.02;81.77;101253.28;5049924;28;20533;-74
2022/03/11 05:01:34;;;;;;;8.97;6.70;;;;;;;-0.92;81.50;101253.66;5050250;28;20221;-75
2022/03/11 05:04:00;;;;;;;9.13;6.37;;;;;;;-1.07;81.20;101245.09;5049890;28;20234;-75
2022/03/11 05:06:25;;;;;;;11.37;7.10;;;;;;;-1.82;82.46;101233.25;5050352;28;20365;-74
2022/03/11 05:08:50;;;;;;;9.20;6.70;;;;;;;-1.96;84.15;101232.44;5049609;28;20187;-75
2022/03/11 05:11:16;;;;;;;10.37;5.70;;;;;;;-1.75;84.46;101242.06;5049914;28;20179;-74
2022/03/11 05:13:41;;;;;;;7.50;6.27;;;;;;;-1.53;84.31;101253.34;5049902;28;20191;-74
2022/03/11 05:16:06;;;;;;;8.00;5.90;;;;;;;-1.33;84.26;101258.63;5049599;28;20179;-75
2022/03/11 05:18:32;;;;;;;6.27;5.57;;;;;;;-1.39;83.31;101259.47;5049921;28;20176;-74
2022/03/11 05:20:57;;;;;;;8.37;6.93;;;;;;;-1.45;83.64;101257.63;5053961;28;20244;-74
2022/03/11 05:23:23;;;;;;;6.53;5.87;;;;;;;-1.58;83.51;101255.84;5053680;28;20209;-74
2022/03/11 05:25:48;;;;;;;7.20;5.57;;;;;;;-1.83;83.42;101245.81;5053618;28;20171;-75
2022/03/11 05:28:14;;;;;;;7.73;6.80;;;;;;;-2.06;84.17;101240.06;5053254;28;20195;-74
2022/03/11 05:30:40;;;;;;;6.63;5.63;;;;;;;-2.16;85.21;101243.19;5053860;28;20179;-76
2022/03/11 05:33:06;;;;;;;7.43;5.73;;;;;;;-2.10;85.45;101252.25;5053473;28;20780;-74
2022/03/11 05:35:31;;;;;;;7.37;5.57;;;;;;;-2.26;85.75;101247.31;5053444;28;20254;-74
2022/03/11 05:37:57;;;;;;;7.17;6.17;;;;;;;-2.33;86.13;101244.63;5053065;28;20182;-74
2022/03/11 05:40:22;;;;;;;9.57;6.97;;;;;;;-2.37;86.71;101245.25;5053371;28;20203;-74
2022/03/11 05:42:48;;;;;;;5.83;4.83;;;;;;;-2.36;86.75;101250.41;5053318;28;20700;-74
2022/03/11 05:45:13;;;;;;;8.23;6.03;;;;;;;-2.50;86.95;101249.56;5053121;28;20237;-74
2022/03/11 05:47:39;;;;;;;7.87;6.23;;;;;;;-2.37;87.65;101258.63;5053180;28;20544;-74
2022/03/11 05:50:05;;;;;;;7.60;5.60;;;;;;;-2.44;87.45;101259.47;5053490;28;20178;-74
2022/03/11 05:52:30;;;;;;;13.03;6.70;;;;;;;-2.42;87.56;101256.59;5053330;28;20194;-74
2022/03/11 05:54:56;;;;;;;8.07;6.50;;;;;;;-2.39;87.26;101256.16;5053036;28;20240;-74
2022/03/11 05:57:21;;;;;;;21.03;6.37;;;;;;;-2.33;87.40;101263.34;5052779;28;20175;-74
2022/03/11 05:59:46;;;;;;;14.00;6.87;;;;;;;-2.32;86.96;101251.63;5052938;28;20258;-73
2022/03/11 06:02:11;;;;;;;19.17;6.67;;;;;;;-2.28;86.81;101263.59;5053178;28;20175;-74
2022/03/11 06:04:37;;;;;;;10.10;5.43;;;;;;;-2.21;86.53;101268.91;5034776;28;20767;-74
2022/03/11 06:07:04;;;;;;;16.43;7.70;;;;;;;-2.31;86.92;101272.03;5052558;28;20181;-74
2022/03/11 06:09:30;;;;;;;10.60;7.43;;;;;;;-2.34;87.01;101260.91;5052790;28;20178;-74
2022/03/11 06:11:55;;;;;;;14.83;6.20;;;;;;;-2.33;87.46;101262.53;5052623;28;20422;-74
2022/03/11 06:14:20;;;;;;;6.97;5.63;;;;;;;-2.35;86.89;101261.94;5052411;28;20253;-74
2022/03/11 06:16:45;;;;;;;9.80;6.00;;;;;;;-2.34;86.98;101260.91;5052608;28;20252;-74
2022/03/11 06:19:11;;;;;;;11.97;6.70;;;;;;;-2.35;86.94;101269.94;5052556;28;20217;-74
2022/03/11 06:21:36;;;;;;;9.73;5.87;;;;;;;-2.31;86.94;101276.56;5052650;28;20677;-73
2022/03/11 06:24:02;;;;;;;9.83;6.40;;;;;;;-2.31;86.90;101268.53;5052380;28;20274;-74
2022/03/11 06:26:27;;;;;;;9.03;6.13;;;;;;;-2.26;87.30;101271.41;5052404;28;20659;-74
2022/03/11 06:28:52;;;;;;;12.20;6.50;;;;;;;-2.17;86.61;101278.16;5052115;28;20587;-73
2022/03/11 06:31:18;;;;;;;6.90;5.40;;;;;;;-2.11;86.31;101283.53;5051834;28;20642;-73
2022/03/11 06:33:43;;;;;;;10.13;5.90;;;;;;;-2.01;85.67;101287.66;5052578;28;20225;-74
2022/03/11 06:36:08;;;;;;;7.20;5.93;;;;;;;-1.94;85.28;101288.47;5052258;28;20221;-73
2022/03/11 06:38:34;;;;;;;8.03;5.60;;;;;;;-1.89;85.03;101291.31;5052042;28;20198;-74
2022/03/11 06:40:59;;;;;;;8.10;6.70;;;;;;;-1.81;84.83;101296.47;5052216;28;20221;-74
2022/03/11 06:43:24;;;;;;;12.37;6.13;;;;;;;-1.70;83.91;101301.19;5052142;28;20253;-73
2022/03/11 06:45:50;;;;;;;10.50;5.50;;;;;;;-1.55;83.48;101303.63;5052171;28;20167;-73
2022/03/11 06:48:18;;;;;;;10.87;6.77;;;;;;;-1.40;82.39;101311.44;5051983;28;20790;-73
2022/03/11 06:50:44;;;;;;;8.37;5.43;;;;;;;-1.24;81.03;101311.78;5052066;28;20178;-74
2022/03/11 06:53:09;;;;;;;6.93;5.87;;;;;;;-1.13;80.26;101310.31;5052020;28;20463;-73
2022/03/11 06:55:35;;;;;;;7.80;6.37;;;;;;;-1.04;79.40;101308.19;5051749;28;20414;-73
2022/03/11 06:58:00;;;;;;;11.13;6.60;;;;;;;-0.94;78.46;101313.91;5052045;28;20229;-73
2022/03/11 07:00:26;;;;;;;6.77;5.67;;;;;;;-0.89;77.24;101306.03;5051960;28;20195;-73
2022/03/11 07:02:51;;;;;;;8.10;6.50;;;;;;;-0.81;76.30;101302.31;5051917;28;20175;-73
2022/03/11 07:05:17;;;;;;;7.53;5.97;;;;;;;-0.74;76.33;101301.22;5051615;28;20215;-73
2022/03/11 07:07:42;;;;;;;6.93;5.80;;;;;;;-0.69;75.68;101308.63;5051341;28;20177;-74
2022/03/11 07:10:12;;;;;;;7.33;6.23;;;;;;;-0.62;75.94;101301.34;5051633;28;20179;-74
2022/03/11 07:12:38;;;;;;;7.90;6.90;;;;;;;-0.54;76.11;101301.09;5051544;28;20199;-73
2022/03/11 07:15:05;;;;;;;12.37;6.60;;;;;;;-0.53;76.06;101299.25;5051702;28;20426;-73
2022/03/11 07:17:31;;;;;;;8.13;6.50;;;;;;;-0.46;75.27;101295.44;5051255;28;20428;-74
2022/03/11 07:19:57;;;;;;;6.90;5.70;;;;;;;-0.39;74.80;101293.56;5051331;28;20521;-73
2022/03/11 07:22:22;;;;;;;7.90;6.43;;;;;;;-0.30;73.72;101304.81;5051699;28;20382;-73
2022/03/11 07:24:48;;;;;;;10.60;6.60;;;;;;;-0.24;73.13;101300.47;5051431;28;20229;-73
2022/03/11 07:27:13;;;;;;;6.37;5.67;;;;;;;-0.17;72.05;101303.91;5033356;28;20289;-74
2022/03/11 07:29:39;;;;;;;6.50;5.70;;;;;;;-0.07;71.42;101298.88;5051254;28;20194;-73
2022/03/11 07:32:05;;;;;;;8.30;5.37;;;;;;;0.02;71.03;101296.75;5051218;28;20651;-74
2022/03/11 07:34:31;;;;;;;8.13;6.40;;;;;;;0.12;70.32;101305.91;5051062;28;20258;-73
2022/03/11 07:36:56;;;;;;;6.50;5.80;;;;;;;0.17;70.63;101307.97;5051124;28;20521;-74
2022/03/11 07:39:22;;;;;;;8.90;5.43;;;;;;;0.24;70.70;101306.03;5051111;28;20524;-74
2022/03/11 07:41:49;;;;;;;14.80;5.47;;;;;;;0.31;70.48;101304.09;5050724;28;20175;-74
2022/03/11 07:44:15;;;;;;;7.87;5.73;;;;;;;0.43;70.01;101301.47;5050715;28;20192;-75
2022/03/11 07:46:41;;;;;;;8.13;6.30;;;;;;;0.48;68.88;101301.66;5050739;28;20612;-74
2022/03/11 07:49:07;;;;;;;5.67;5.13;;;;;;;0.59;68.98;101299.03;5050720;28;20168;-74
2022/03/11 07:51:32;;;;;;;6.23;5.63;;;;;;;0.72;67.98;101289.16;5051082;28;20525;-75
2022/03/11 07:53:58;;;;;;;6.00;5.40;;;;;;;0.70;68.12;101286.69;5051018;28;20207;-74
2022/03/11 07:56:24;;;;;;;7.60;5.77;;;;;;;0.77;69.04;101297.38;5050627;28;20171;-75
2022/03/11 07:58:50;;;;;;;10.93;6.70;;;;;;;0.77;68.72;101292.00;5050236;28;20175;-75
2022/03/11 08:01:16;;;;;;;7.43;6.67;;;;;;;0.69;68.38;101284.22;5050822;28;20225;-73
2022/03/11 08:03:42;;;;;;;8.23;6.47;;;;;;;0.75;68.33;101291.41;5050531;28;20199;-73
2022/03/11 08:06:08;;;;;;;9.37;6.30;;;;;;;0.88;68.23;101291.25;5050569;28;20183;-73
2022/03/11 08:08:35;;;;;;;6.23;5.33;;;;;;;0.93;67.46;101285.19;5050612;28;20175;-73
2022/03/11 08:11:00;;;;;;;10.43;6.10;;;;;;;0.99;66.26;101276.19;5050629;28;20492;-72
2022/03/11 08:13:26;;;;;;;7.93;4.57;;;;;;;0.98;65.06;101272.69;5050526;28;20183;-73
2022/03/11 08:15:52;;;;;;;8.90;6.33;;;;;;;1.00;64.33;101269.75;5050191;28;20221;-76
2022/03/11 08:18:18;;;;;;;7.10;5.63;;;;;;;1.11;65.55;101269.00;5050345;28;20519;-73
2022/03/11 08:20:43;;;;;;;6.40;5.50;;;;;;;1.28;64.55;101269.16;5050500;28;20429;-74
2022/03/11 08:23:09;;;;;;;9.83;6.10;;;;;;;1.25;63.54;101266.94;5050430;28;20221;-73
2022/03/11 08:25:36;;;;;;;6.53;5.90;;;;;;;1.19;63.19;101256.06;5050808;28;20171;-73
2022/03/11 08:28:02;;;;;;;5.50;4.73;;;;;;;1.14;63.82;101263.16;5050885;28;20184;-73
2022/03/11 08:30:29;;;;;;;7.73;5.33;;;;;;;1.27;64.37;101267.53;5050222;28;20179;-73
2022/03/11 08:32:55;;;;;;;6.83;5.57;;;;;;;1.28;63.83;101259.22;5050444;28;20178;-73
2022/03/11 08:35:21;;;;;;;6.67;5.70;;;;;;;1.35;63.72;101259.97;5050370;28;20183;-73
2022/03/11 08:37:46;;;;;;;6.20;4.50;;;;;;;1.39;63.14;101258.44;5050177;28;20531;-74
2022/03/11 08:40:13;;;;;;;8.83;5.50;;;;;;;1.52;63.39;101264.69;5050202;28;20639;-73
2022/03/11 08:42:40;;;;;;;6.80;4.60;;;;;;;1.58;62.85;101261.84;5050311;28;20182;-74
2022/03/11 08:45:08;;;;;;;7.13;5.73;;;;;;;1.74;62.46;101266.59;5031872;28;20290;-72
2022/03/11 08:47:34;;;;;;;9.17;5.63;;;;;;;1.82;62.44;101259.22;5030918;28;20183;-73
2022/03/11 08:49:59;;;;;;;7.67;5.53;;;;;;;1.97;60.09;101256.88;5048846;28;20175;-73
2022/03/11 08:52:25;;;;;;;6.43;5.13;;;;;;;2.11;58.82;101246.69;5049663;28;20232;-73
2022/03/11 08:54:51;;;;;;;8.13;5.57;;;;;;;2.19;58.42;101239.06;5052768;28;20278;-72
2022/03/11 08:57:16;;;;;;;7.83;5.70;;;;;;;2.39;57.88;101247.56;5054010;28;20309;-73
2022/03/11 08:59:41;;;;;;;6.33;5.07;;;;;;;2.61;57.98;101242.38;5052248;28;20179;-73
2022/03/11 09:02:08;;;;;;;7.53;4.93;;;;;;;2.56;57.25;101238.75;5052403;28;20187;-73
2022/03/11 09:04:34;;;;;;;5.10;4.33;;;;;;;2.44;56.95;101233.38;5052354;28;20206;-73
2022/03/11 09:07:00;;;;;;;6.97;5.07;;;;;;;2.38;57.21;101237.84;5052271;28;20224;-72
2022/03/11 09:09:25;;;;;;;8.87;4.30;;;;;;;2.49;57.62;101232.69;5053293;28;20179;-73
2022/03/11 09:11:50;;;;;;;5.43;4.93;;;;;;;2.53;57.04;101233.84;5053208;28;20182;-76
2022/03/11 09:14:18;;;;;;;5.60;4.57;;;;;;;2.57;57.03;101232.28;5053278;28;20264;-72
2022/03/11 09:16:43;;;;;;;5.47;4.87;;;;;;;2.79;57.10;101240.56;5053658;28;20175;-73
2022/03/11 09:19:09;;;;;;;6.17;5.03;;;;;;;2.82;56.94;101227.41;5053774;28;20548;-73
2022/03/11 09:21:34;;;;;;;5.03;4.13;;;;;;;2.85;56.04;101237.72;5053864;28;20179;-73
2022/03/11 09:24:00;;;;;;;7.23;5.53;;;;;;;3.03;54.35;101228.59;5053481;28;20187;-73
2022/03/11 09:26:25;;;;;;;7.00;5.00;;;;;;;3.14;54.66;101216.94;5053494;28;20198;-73
2022/03/11 09:28:51;;;;;;;6.37;5.07;;;;;;;3.36;54.57;101224.34;5053274;28;20187;-73
2022/03/11 09:31:16;;;;;;;8.97;4.50;;;;;;;3.54;53.55;101222.22;5053671;28;20266;-72
2022/03/11 09:33:41;;;;;;;5.83;4.60;;;;;;;3.58;52.72;101225.22;5053468;28;20725;-73
2022/03/11 09:36:08;;;;;;;5.73;4.30;;;;;;;3.79;52.70;101220.97;5053565;28;20258;-72
2022/03/11 09:38:33;;;;;;;6.20;4.47;;;;;;;3.94;52.75;101220.38;5035181;28;20183;-72
2022/03/11 09:41:01;;;;;;;5.47;4.73;;;;;;;4.14;52.89;101220.66;5053281;28;20522;-72
2022/03/11 09:43:26;;;;;;;6.43;4.63;;;;;;;3.86;52.20;101211.63;5053307;28;20209;-72
2022/03/11 09:45:52;;;;;;;5.37;4.87;;;;;;;3.89;52.83;101207.59;5053242;28;20297;-73
2022/03/11 09:48:19;;;;;;;6.90;5.43;;;;;;;4.00;52.62;101205.88;5052973;28;20226;-72
2022/03/11 09:50:44;;;;;;;5.77;4.40;;;;;;;4.28;53.11;101211.13;5053263;28;20253;-73
2022/03/11 09:53:11;;;;;;;5.90;4.73;;;;;;;4.25;51.88;101197.28;5053176;28;20179;-72
2022/03/11 09:55:38;;;;;;;5.30;4.80;;;;;;;4.29;51.77;101198.41;5052968;28;20509;-73
2022/03/11 09:58:03;;;;;;;5.43;4.67;;;;;;;4.41;51.26;101197.22;5052945;28;20175;-72
2022/03/11 10:00:28;;;;;;;8.33;5.17;;;;;;;4.58;51.97;101201.75;5053158;28;20217;-73
2022/03/11 10:02:55;;;;;;;6.70;4.43;;;;;;;4.61;51.13;101201.25;5052989;28;20670;-72
2022/03/11 10:05:21;;;;;;;4.93;4.17;;;;;;;4.81;51.52;101195.25;5051936;28;20209;-72
2022/03/11 10:08:00;;;;;;;4.63;4.27;;;;;;;4.99;48.19;101193.00;5052681;28;20183;-72
2022/03/11 10:10:26;;;;;;;6.77;4.83;;;;;;;5.08;46.03;101187.97;5053021;28;20201;-72
2022/03/11 10:12:53;;;;;;;6.30;4.53;;;;;;;5.21;46.82;101190.25;5052785;28;20229;-72
2022/03/11 10:15:27;;;;;;;6.03;4.47;;;;;;;5.38;45.74;101174.69;5052505;28;20650;-72
2022/03/11 10:17:53;;;;;;;5.27;4.40;;;;;;;5.47;45.17;101172.28;5052429;28;20168;-72
2022/03/11 10:20:18;;;;;;;4.87;4.30;;;;;;;5.52;44.82;101166.91;5034686;28;20167;-72
2022/03/11 10:22:45;;;;;;;8.17;4.33;;;;;;;5.46;47.04;101153.56;5052608;28;20179;-72
2022/03/11 10:25:30;;;;;;;8.23;4.60;;;;;;;5.51;45.03;101164.47;5052567;28;20267;-72
2022/03/11 10:28:15;;;;;;;7.73;4.43;;;;;;;5.57;44.55;101144.44;5052187;28;20183;-72
2022/03/11 10:30:42;;;;;;;5.87;5.23;;;;;;;5.69;44.86;101147.78;5052493;28;20238;-72
2022/03/11 10:33:17;;;;;;;5.90;5.40;;;;;;;5.30;46.53;101139.09;5052532;28;20206;-74
2022/03/11 10:35:47;;;;;;;6.03;4.60;;;;;;;5.53;47.96;101137.94;5052442;28;20260;-72
2022/03/11 10:38:14;;;;;;;5.27;4.60;;;;;;;5.63;47.63;101138.78;5052588;28;20167;-73
2022/03/11 10:40:48;;;;;;;5.83;5.03;;;;;;;5.62;47.36;101129.03;5052281;28;20210;-72
2022/03/11 10:43:28;;;;;;;5.90;4.70;;;;;;;5.96;46.55;101134.16;5052272;28;20198;-72
2022/03/11 10:46:07;;;;;;;4.83;4.40;;;;;;;6.09;45.44;101141.00;5052157;28;20553;-73
2022/03/11 10:48:43;;;;;;;5.60;4.87;;;;;;;5.93;46.05;101132.78;5051935;28;20569;-72
2022/03/11 10:51:29;;;;;;;5.20;3.83;;;;;;;5.68;45.01;101125.28;5051994;28;20182;-72
2022/03/11 10:53:58;;;;;;;5.93;4.97;;;;;;;5.61;45.26;101113.84;5052280;28;20177;-72
2022/03/11 10:56:35;;;;;;;6.10;4.70;;;;;;;5.72;45.87;101116.63;5051968;28;20526;-72
2022/03/11 10:59:04;;;;;;;5.20;3.93;;;;;;;5.78;45.36;101108.25;5051770;28;20171;-72
2022/03/11 11:01:51;;;;;;;5.80;5.27;;;;;;;5.92;44.97;101111.31;5051705;28;20179;-72
2022/03/11 11:04:17;;;;;;;5.27;4.63;;;;;;;5.99;44.42;101100.25;5051998;28;20206;-72
2022/03/11 11:06:44;;;;;;;5.57;4.97;;;;;;;6.06;44.21;101098.09;5051847;28;20225;-72
2022/03/11 11:09:11;;;;;;;5.97;4.73;;;;;;;6.28;45.04;101106.06;5051629;28;20171;-72
2022/03/11 11:11:37;;;;;;;4.83;4.03;;;;;;;6.31;44.10;101091.97;5052130;28;20171;-72
2022/03/11 11:14:05;;;;;;;6.03;4.47;;;;;;;6.31;44.47;101095.50;5051370;28;20584;-72
2022/03/11 11:16:38;;;;;;;4.93;4.43;;;;;;;6.24;43.53;101084.09;5051313;28;20171;-72
2022/03/11 11:19:06;;;;;;;5.77;4.57;;;;;;;6.29;43.68;101078.66;5051513;28;20214;-72
2022/03/11 11:21:34;;;;;;;9.60;4.60;;;;;;;6.35;43.46;101083.00;5051566;28;20556;-72
2022/03/11 11:24:00;;;;;;;5.43;4.47;;;;;;;6.48;43.79;101078.97;5051290;28;20202;-72